Time;durP1;ratioP1;P1;durP2;ratioP2;P2;SDS_P1;SDS_P2;PMS_P1;PMS_P2;Temp;Humidity;BMP_temperature;BMP_pressure;BME280_temperature;BME280_humidity;BME280_pressure;Samples;Min_cycle;Max_cycle;Signal;HPM_P1;HPM_P2
2022/05/29 00:01:51;;;;;;;1.80;1.77;;;;;;;12.90;54.86;95192.28;5088337;28;20024;-62
2022/05/29 00:04:16;;;;;;;2.00;1.83;;;;;;;12.71;55.66;95188.19;5088614;28;20031;-62
2022/05/29 00:06:48;;;;;;;3.33;1.80;;;;;;;12.59;56.88;95189.50;5088785;28;20035;-62
2022/05/29 00:09:20;;;;;;;2.00;1.90;;;;;;;12.50;54.90;95186.09;5088697;28;20042;-62
2022/05/29 00:11:46;;;;;;;3.15;1.83;;;;;;;12.49;55.57;95186.22;5094180;28;20035;-62
2022/05/29 00:14:11;;;;;;;2.05;1.70;;;;;;;12.49;55.26;95183.59;5107461;28;20016;-62
2022/05/29 00:16:37;;;;;;;1.85;1.75;;;;;;;12.47;55.43;95189.03;5099272;28;20580;-62
2022/05/29 00:19:02;;;;;;;1.70;1.60;;;;;;;12.46;55.35;95179.47;5096577;28;20158;-62
2022/05/29 00:21:33;;;;;;;1.88;1.77;;;;;;;12.41;54.43;95181.78;5095753;28;20502;-62
2022/05/29 00:23:59;;;;;;;2.58;1.88;;;;;;;12.34;54.13;95181.63;5107721;28;20027;-63
2022/05/29 00:26:25;;;;;;;3.80;1.92;;;;;;;12.28;54.16;95177.84;5096313;28;20024;-62
2022/05/29 00:28:50;;;;;;;1.92;1.83;;;;;;;12.24;54.69;95176.50;5099369;28;20077;-62
2022/05/29 00:31:16;;;;;;;1.85;1.73;;;;;;;12.18;54.94;95175.38;5094431;28;20531;-63
2022/05/29 00:33:41;;;;;;;1.88;1.77;;;;;;;12.14;55.41;95165.28;5103511;28;20486;-62
2022/05/29 00:36:09;;;;;;;1.85;1.75;;;;;;;12.11;55.50;95171.72;5103230;28;20015;-63
2022/05/29 00:38:39;;;;;;;2.05;1.60;;;;;;;12.06;55.72;95160.03;5104135;28;20055;-63
2022/05/29 00:41:11;;;;;;;2.45;2.25;;;;;;;11.97;56.86;95169.72;5106372;28;20387;-62
2022/05/29 00:43:37;;;;;;;2.00;1.70;;;;;;;11.90;56.35;95174.81;5103704;28;20397;-62
2022/05/29 00:46:04;;;;;;;2.10;1.90;;;;;;;11.93;55.85;95171.00;5101252;28;20020;-62
2022/05/29 00:48:30;;;;;;;2.17;1.60;;;;;;;11.96;56.01;95166.22;5099595;28;20028;-63
2022/05/29 00:51:00;;;;;;;2.03;1.70;;;;;;;12.02;55.66;95168.25;5105853;28;20015;-63
2022/05/29 00:53:27;;;;;;;2.83;1.77;;;;;;;11.97;55.98;95165.25;5098802;28;20019;-62
2022/05/29 00:56:12;;;;;;;1.92;1.83;;;;;;;11.87;57.08;95167.22;5104666;28;20044;-62
2022/05/29 00:58:38;;;;;;;1.88;1.77;;;;;;;11.86;56.78;95162.94;5106279;28;20084;-63
2022/05/29 01:01:03;;;;;;;3.38;1.52;;;;;;;11.78;57.45;95155.84;5104136;28;20154;-62
2022/05/29 01:03:29;;;;;;;1.80;1.70;;;;;;;11.78;57.68;95155.00;5096725;28;20063;-62
2022/05/29 01:05:55;;;;;;;3.90;1.70;;;;;;;11.77;58.27;95150.72;5105697;28;20047;-62
2022/05/29 01:08:29;;;;;;;1.65;1.52;;;;;;;11.68;58.20;95150.72;5097303;28;20016;-61
2022/05/29 01:11:12;;;;;;;1.90;1.63;;;;;;;11.62;58.75;95148.72;5097825;28;20019;-63
2022/05/29 01:13:50;;;;;;;4.70;2.20;;;;;;;11.52;59.67;95154.13;5097934;28;20020;-62
2022/05/29 01:16:56;;;;;;;2.45;2.15;;;;;;;11.51;60.44;95151.66;5102632;28;20402;-62
2022/05/29 01:20:09;;;;;;;4.40;1.77;;;;;;;11.38;61.02;95147.66;5098680;28;20032;-61
2022/05/29 01:23:13;;;;;;;2.20;2.00;;;;;;;11.30;60.72;95152.91;4999613;28;20043;-62
2022/05/29 01:26:00;;;;;;;4.70;1.77;;;;;;;11.26;60.37;95146.31;5093591;28;20063;-62
2022/05/29 01:28:44;;;;;;;2.25;2.10;;;;;;;11.19;60.47;95140.84;5094506;28;20024;-62
2022/05/29 01:31:22;;;;;;;1.88;1.77;;;;;;;11.17;60.45;95146.28;5103658;28;20051;-62
2022/05/29 01:33:58;;;;;;;3.15;1.70;;;;;;;11.13;60.29;95144.94;5099817;28;20149;-62
2022/05/29 01:36:41;;;;;;;2.30;1.80;;;;;;;11.11;60.35;95146.09;5103688;28;20398;-62
2022/05/29 01:39:13;;;;;;;2.80;1.75;;;;;;;11.18;60.00;95149.75;5096020;28;20104;-62
2022/05/29 01:41:53;;;;;;;2.20;2.00;;;;;;;11.21;60.24;95141.50;5102383;28;20107;-62
2022/05/29 01:44:30;;;;;;;2.78;2.03;;;;;;;11.13;60.24;95137.03;5100283;28;20391;-62
2022/05/29 01:47:04;;;;;;;2.60;2.40;;;;;;;11.11;60.21;95139.00;5102310;28;20395;-62
2022/05/29 01:49:36;;;;;;;1.65;1.58;;;;;;;11.13;59.87;95125.69;5099294;28;20035;-62
2022/05/29 01:52:07;;;;;;;2.78;1.92;;;;;;;11.14;60.17;95128.16;5105775;28;20032;-62
2022/05/29 01:54:38;;;;;;;2.03;1.80;;;;;;;11.10;60.54;95126.00;5096163;28;20040;-62
2022/05/29 01:57:11;;;;;;;2.80;2.00;;;;;;;11.11;61.21;95123.19;5103469;28;20024;-62
2022/05/29 01:59:44;;;;;;;2.00;1.90;;;;;;;11.12;60.92;95121.41;5094664;28;20048;-62
2022/05/29 02:02:14;;;;;;;2.00;1.80;;;;;;;11.11;60.89;95123.19;5108115;28;20112;-62
2022/05/29 02:04:46;;;;;;;4.32;1.95;;;;;;;11.08;61.02;95128.78;5106442;28;20047;-62
2022/05/29 02:10:08;;;;;;;1.90;1.80;;;;;;;11.09;61.23;95124.34;5095886;28;20035;-62
2022/05/29 02:12:39;;;;;;;2.03;1.90;;;;;;;11.06;60.85;95120.22;5097052;28;20039;-62
2022/05/29 02:15:12;;;;;;;2.08;1.92;;;;;;;10.98;61.01;95126.28;5102691;28;20492;-62
2022/05/29 02:17:42;;;;;;;1.58;1.48;;;;;;;11.00;60.36;95123.50;5098202;28;20019;-62
2022/05/29 02:20:14;;;;;;;4.50;1.83;;;;;;;10.95;60.84;95121.34;5101519;28;20024;-63
2022/05/29 02:22:41;;;;;;;3.03;1.92;;;;;;;10.95;60.73;95113.44;5102870;28;20049;-62
2022/05/29 02:25:14;;;;;;;2.08;1.67;;;;;;;10.91;61.05;95113.91;5101012;28;20228;-62
2022/05/29 02:28:03;;;;;;;1.85;1.67;;;;;;;10.80;60.10;95115.84;5095730;28;20072;-62
2022/05/29 02:31:00;;;;;;;6.88;2.08;;;;;;;10.82;60.57;95113.88;5097037;28;20051;-62
2022/05/29 02:33:38;;;;;;;1.83;1.73;;;;;;;10.74;61.47;95119.91;5106253;28;20024;-62
2022/05/29 02:36:29;;;;;;;1.85;1.75;;;;;;;10.80;60.16;95122.91;5102220;28;20705;-61
2022/05/29 02:39:00;;;;;;;1.98;1.70;;;;;;;10.76;59.87;95114.50;5107364;28;20096;-62
2022/05/29 02:41:47;;;;;;;2.20;2.00;;;;;;;10.75;59.55;95115.50;5108173;28;20057;-62
2022/05/29 02:44:24;;;;;;;1.67;1.60;;;;;;;10.71;59.89;95114.97;5110437;28;20020;-62
2022/05/29 02:46:56;;;;;;;1.95;1.85;;;;;;;10.77;59.42;95115.31;5110587;28;20027;-62
2022/05/29 02:49:34;;;;;;;1.80;1.70;;;;;;;10.81;59.62;95104.31;5106403;28;20038;-62
2022/05/29 02:52:06;;;;;;;2.08;1.88;;;;;;;10.77;59.78;95100.38;5110469;28;20020;-62
2022/05/29 02:54:32;;;;;;;2.45;1.70;;;;;;;10.68;60.13;95096.03;5110174;28;20108;-62
2022/05/29 02:56:59;;;;;;;1.95;1.85;;;;;;;10.63;60.44;95098.31;5109917;28;20077;-62
2022/05/29 02:59:32;;;;;;;4.05;1.70;;;;;;;10.57;61.36;95103.22;5110240;28;20019;-62
2022/05/29 03:02:11;;;;;;;2.22;2.03;;;;;;;10.56;62.17;95101.56;5109878;28;20041;-62
2022/05/29 03:04:55;;;;;;;2.65;1.88;;;;;;;10.46;60.38;95103.47;5105161;28;20131;-62
2022/05/29 03:07:44;;;;;;;2.42;1.45;;;;;;;10.43;60.41;95104.63;5104011;28;20024;-62
2022/05/29 03:10:23;;;;;;;1.75;1.65;;;;;;;10.41;60.96;95103.13;5110374;28;20058;-62
2022/05/29 03:12:54;;;;;;;2.22;1.45;;;;;;;10.34;61.49;95104.69;5105763;28;20023;-62
2022/05/29 03:15:37;;;;;;;2.28;1.88;;;;;;;10.30;62.19;95109.44;5098564;28;20020;-62
2022/05/29 03:18:30;;;;;;;1.60;1.58;;;;;;;10.27;62.88;95110.56;5109886;28;20046;-62
2022/05/29 03:21:09;;;;;;;2.58;1.73;;;;;;;10.21;63.31;95108.56;5110208;28;20031;-62
2022/05/29 03:23:50;;;;;;;2.45;1.70;;;;;;;10.09;64.32;95110.59;5110124;28;20487;-62
2022/05/29 03:26:45;;;;;;;1.52;1.42;;;;;;;10.04;63.74;95100.53;5109645;28;20440;-62
2022/05/29 03:29:19;;;;;;;2.67;1.80;;;;;;;9.86;65.05;95107.66;5072980;28;20508;-62
2022/05/29 03:31:45;;;;;;;2.83;1.88;;;;;;;9.73;65.19;95108.84;5106450;28;20030;-62
2022/05/29 03:34:13;;;;;;;2.40;1.90;;;;;;;9.75;64.89;95117.41;5099657;28;20019;-62
2022/05/29 03:36:50;;;;;;;3.67;2.00;;;;;;;9.77;64.48;95114.63;5110126;28;20024;-62
2022/05/29 03:39:17;;;;;;;2.40;1.90;;;;;;;9.74;64.98;95115.75;5109768;28;20015;-62
2022/05/29 03:41:47;;;;;;;3.30;1.70;;;;;;;9.58;65.59;95120.84;5108507;28;20563;-62
2022/05/29 03:44:16;;;;;;;2.30;1.70;;;;;;;9.54;65.32;95124.75;5109891;28;20012;-62
2022/05/29 03:46:43;;;;;;;1.77;1.67;;;;;;;9.45;65.45;95124.69;5110113;28;20494;-62
2022/05/29 03:49:09;;;;;;;1.80;1.70;;;;;;;9.41;65.77;95125.97;5106659;28;20027;-62
2022/05/29 03:51:35;;;;;;;2.65;2.00;;;;;;;9.38;65.96;95126.25;5093713;28;20027;-61
2022/05/29 03:54:02;;;;;;;6.57;2.00;;;;;;;9.40;65.91;95129.56;5097885;28;20028;-62
2022/05/29 03:56:27;;;;;;;1.70;1.60;;;;;;;9.49;65.13;95117.31;5089189;28;20109;-62
2022/05/29 03:58:53;;;;;;;2.88;1.55;;;;;;;9.53;65.18;95128.38;5093964;28;20036;-62
2022/05/29 04:01:18;;;;;;;3.47;1.70;;;;;;;9.46;66.10;95126.34;5089193;28;20126;-62
2022/05/29 04:03:44;;;;;;;3.00;1.80;;;;;;;9.42;65.96;95127.63;5089394;28;20131;-62
2022/05/29 04:06:09;;;;;;;1.52;1.50;;;;;;;9.37;65.89;95140.34;5089741;28;20039;-62
2022/05/29 04:14:04;;;;;;;3.30;2.77;;;;;;;9.30;67.45;95136.69;5113117;28;20061;-62
2022/05/29 04:16:30;;;;;;;2.58;2.38;;;;;;;9.29;67.63;95135.03;5112865;28;20265;-62
2022/05/29 04:18:55;;;;;;;3.33;1.85;;;;;;;9.24;67.72;95135.47;5107101;28;20080;-62
2022/05/29 04:21:21;;;;;;;2.20;2.10;;;;;;;9.23;68.23;95139.06;5113206;28;20028;-62
2022/05/29 04:23:46;;;;;;;2.05;1.95;;;;;;;9.15;70.36;95136.34;5113468;28;20042;-62
2022/05/29 04:26:14;;;;;;;3.13;2.40;;;;;;;9.18;69.25;95138.69;5113433;28;20031;-62
2022/05/29 04:28:39;;;;;;;2.33;2.22;;;;;;;9.17;68.63;95140.50;5093170;28;20024;-62
2022/05/29 04:31:05;;;;;;;2.08;1.98;;;;;;;9.20;68.79;95143.81;5092655;28;20020;-62
2022/05/29 04:33:30;;;;;;;2.30;2.10;;;;;;;9.14;70.07;95142.56;5102188;28;20019;-62
2022/05/29 04:35:56;;;;;;;5.60;2.00;;;;;;;9.12;70.51;95142.72;5092847;28;20052;-62
2022/05/29 04:38:27;;;;;;;1.70;1.60;;;;;;;9.11;69.69;95143.69;5092364;28;20101;-62
2022/05/29 04:40:54;;;;;;;2.65;1.83;;;;;;;9.11;69.55;95148.94;5096421;28;20439;-62
2022/05/29 04:43:20;;;;;;;3.33;2.03;;;;;;;9.17;70.02;95151.00;5097390;28;20058;-62
2022/05/29 04:45:46;;;;;;;3.05;2.00;;;;;;;9.19;69.86;95150.03;5092735;28;20020;-62
2022/05/29 04:48:14;;;;;;;2.42;1.90;;;;;;;9.24;68.91;95150.41;5098167;28;20031;-62
2022/05/29 04:50:40;;;;;;;1.90;1.80;;;;;;;9.24;69.22;95145.16;5101857;28;20034;-62
2022/05/29 04:53:06;;;;;;;2.10;1.80;;;;;;;9.25;69.11;95152.06;5092422;28;20028;-62
2022/05/29 04:55:32;;;;;;;3.53;1.83;;;;;;;9.24;68.86;95147.78;5092025;28;20070;-62
2022/05/29 04:57:57;;;;;;;2.25;1.80;;;;;;;9.16;69.86;95157.19;5092075;28;20050;-62
2022/05/29 05:00:23;;;;;;;2.47;2.28;;;;;;;9.12;69.74;95153.22;5091932;28;20043;-62
2022/05/29 05:02:48;;;;;;;3.47;1.98;;;;;;;9.20;69.56;95159.56;5101946;28;20024;-62
2022/05/29 05:05:15;;;;;;;1.98;1.80;;;;;;;9.13;70.98;95154.88;5091907;28;20020;-62
2022/05/29 05:07:41;;;;;;;2.35;1.70;;;;;;;9.09;70.53;95158.75;5096778;28;20028;-62
2022/05/29 05:10:11;;;;;;;3.45;1.90;;;;;;;9.14;70.90;95155.72;5092098;28;20043;-62
2022/05/29 05:12:39;;;;;;;3.28;1.80;;;;;;;9.32;70.42;95155.75;5101775;28;20028;-62
2022/05/29 05:15:06;;;;;;;2.40;2.20;;;;;;;9.48;70.51;95159.53;5108751;28;20387;-61
2022/05/29 05:17:32;;;;;;;2.30;1.83;;;;;;;9.58;69.65;95153.22;5103969;28;20032;-61
2022/05/29 05:19:57;;;;;;;3.47;1.73;;;;;;;9.76;69.54;95160.31;5103883;28;20076;-62
2022/05/29 05:22:23;;;;;;;1.88;1.77;;;;;;;9.90;68.71;95156.31;5109495;28;20023;-62
2022/05/29 05:24:49;;;;;;;2.80;1.98;;;;;;;10.06;67.83;95160.03;5099861;28;20028;-62
2022/05/29 05:27:14;;;;;;;1.98;1.80;;;;;;;10.16;67.30;95155.53;5091500;28;20050;-61
2022/05/29 05:29:40;;;;;;;3.03;1.70;;;;;;;10.27;66.60;95157.91;5094766;28;20624;-60
2022/05/29 05:32:06;;;;;;;1.70;1.60;;;;;;;10.43;65.63;95153.78;5107108;28;20019;-61
2022/05/29 05:34:31;;;;;;;1.83;1.70;;;;;;;10.56;66.04;95145.47;5107632;28;20547;-61
2022/05/29 05:36:57;;;;;;;2.85;2.10;;;;;;;10.73;65.36;95151.69;5087592;28;20039;-61
2022/05/29 05:39:22;;;;;;;2.30;2.13;;;;;;;10.87;65.36;95151.09;5099800;28;20069;-62
2022/05/29 05:41:48;;;;;;;4.10;2.13;;;;;;;11.05;64.75;95139.66;5095016;28;20069;-61
2022/05/29 05:44:13;;;;;;;2.40;1.77;;;;;;;11.17;64.54;95138.41;5091357;28;20424;-61
2022/05/29 05:46:47;;;;;;;3.08;2.15;;;;;;;11.25;64.57;95144.66;5091292;28;20047;-62
2022/05/29 05:49:15;;;;;;;2.88;2.00;;;;;;;11.40;64.48;95137.81;5091194;28;20027;-62
2022/05/29 05:51:40;;;;;;;1.85;1.73;;;;;;;11.59;63.15;95134.03;5091363;28;20028;-62
2022/05/29 05:54:06;;;;;;;1.80;1.70;;;;;;;11.75;62.63;95143.78;5090758;28;20117;-62
2022/05/29 05:56:31;;;;;;;2.05;1.85;;;;;;;11.90;61.89;95148.44;5091928;28;20165;-62
2022/05/29 05:58:57;;;;;;;2.00;1.80;;;;;;;11.90;62.19;95137.88;5092928;28;20497;-62
2022/05/29 06:01:22;;;;;;;2.08;1.75;;;;;;;11.99;61.75;95131.59;5091192;28;20035;-62
2022/05/29 06:03:47;;;;;;;1.90;1.80;;;;;;;12.18;61.29;95141.06;5090698;28;20386;-62
2022/05/29 06:06:13;;;;;;;1.95;1.80;;;;;;;12.30;60.28;95138.06;5090841;28;20032;-62
2022/05/29 06:08:39;;;;;;;1.80;1.70;;;;;;;12.47;59.43;95133.59;5090889;28;20032;-62
2022/05/29 06:11:05;;;;;;;1.45;1.35;;;;;;;12.72;57.65;95138.84;5091110;28;20024;-62
2022/05/29 06:13:30;;;;;;;1.80;1.48;;;;;;;13.02;53.80;95131.97;5111226;28;20035;-62
2022/05/29 06:16:00;;;;;;;2.22;1.75;;;;;;;13.36;50.53;95130.00;5111279;28;20050;-62
2022/05/29 06:18:26;;;;;;;3.95;1.70;;;;;;;13.51;51.77;95124.00;5111185;28;20046;-62
2022/05/29 06:21:00;;;;;;;1.83;1.70;;;;;;;13.59;50.75;95121.31;5111169;28;20027;-62
2022/05/29 06:23:27;;;;;;;2.83;1.75;;;;;;;13.90;49.86;95117.81;5099876;28;20016;-62
2022/05/29 06:25:52;;;;;;;4.57;1.75;;;;;;;14.36;48.52;95124.88;5098920;28;20028;-62
2022/05/29 06:28:18;;;;;;;2.17;1.50;;;;;;;14.71;47.93;95130.53;5108356;28;20498;-62
2022/05/29 06:30:44;;;;;;;4.40;1.80;;;;;;;14.89;46.86;95127.53;5108587;28;20059;-62
2022/05/29 06:33:11;;;;;;;3.78;1.70;;;;;;;15.04;46.94;95124.06;5107862;28;20035;-62
2022/05/29 06:35:37;;;;;;;1.98;1.45;;;;;;;15.24;47.07;95119.00;5109276;28;20589;-62
2022/05/29 06:38:02;;;;;;;1.95;1.33;;;;;;;15.57;45.19;95113.25;5102710;28;20031;-63
2022/05/29 06:40:28;;;;;;;3.40;1.52;;;;;;;15.84;44.79;95112.72;5094934;28;20032;-62
2022/05/29 06:42:53;;;;;;;3.63;1.85;;;;;;;16.13;44.88;95113.63;5099678;28;20085;-62
2022/05/29 06:45:18;;;;;;;1.30;1.20;;;;;;;16.40;44.37;95112.03;5100870;28;20028;-62
2022/05/29 06:47:44;;;;;;;3.58;1.42;;;;;;;16.60;42.13;95106.84;5101448;28;20036;-62
2022/05/29 06:50:10;;;;;;;4.47;1.58;;;;;;;16.95;41.00;95107.88;5103087;28;20487;-63
2022/05/29 06:52:36;;;;;;;1.60;1.20;;;;;;;17.10;41.16;95107.78;5102009;28;20099;-62
2022/05/29 06:55:03;;;;;;;6.00;1.58;;;;;;;17.29;40.36;95114.19;5091213;28;20177;-62
2022/05/29 06:57:39;;;;;;;3.90;1.52;;;;;;;17.62;40.80;95105.53;5101611;28;20036;-62
2022/05/29 07:08:30;;;;;;;2.35;1.10;;;;;;;18.95;37.48;95103.13;5105674;28;20034;-62
2022/05/29 07:10:59;;;;;;;2.53;1.20;;;;;;;18.87;37.40;95103.34;5091453;28;20020;-62
2022/05/29 07:13:24;;;;;;;1.27;1.17;;;;;;;18.87;37.27;95109.50;5108729;28;20081;-62
2022/05/29 07:15:50;;;;;;;1.48;1.10;;;;;;;19.11;36.01;95109.06;5110148;28;20028;-62
2022/05/29 07:18:15;;;;;;;1.60;1.20;;;;;;;19.20;37.33;95112.31;5109543;28;20054;-63
2022/05/29 07:20:40;;;;;;;2.95;1.60;;;;;;;19.46;36.44;95114.09;5101518;28;20423;-62
2022/05/29 07:23:06;;;;;;;2.40;1.67;;;;;;;19.65;35.44;95109.69;5101203;28;20012;-63
2022/05/29 07:25:31;;;;;;;2.88;1.55;;;;;;;19.60;35.07;95109.50;5101348;28;20024;-62
2022/05/29 07:27:57;;;;;;;2.50;1.30;;;;;;;19.83;34.75;95100.94;5098153;28;20027;-63
2022/05/29 07:30:22;;;;;;;4.35;1.30;;;;;;;19.89;34.21;95099.28;5091916;28;20016;-63
2022/05/29 07:32:48;;;;;;;2.28;1.50;;;;;;;19.83;33.90;95095.59;5096706;28;20437;-63
2022/05/29 07:35:16;;;;;;;2.55;1.50;;;;;;;19.92;35.34;95095.38;5091945;28;20028;-64
2022/05/29 07:37:42;;;;;;;2.38;1.45;;;;;;;19.99;34.52;95093.47;5095673;28;20030;-61
2022/05/29 07:40:08;;;;;;;0.93;0.88;;;;;;;20.25;33.22;95097.84;5093556;28;20028;-63
2022/05/29 07:45:17;;;;;;;2.05;1.35;;;;;;;20.24;33.96;95090.84;5096353;28;20031;-63
2022/05/29 07:47:45;;;;;;;1.77;1.45;;;;;;;21.09;33.50;95087.81;5093549;28;20020;-63
2022/05/29 07:50:17;;;;;;;4.45;1.52;;;;;;;21.00;32.84;95089.97;5093277;28;20502;-63
2022/05/29 07:52:44;;;;;;;2.83;1.48;;;;;;;20.83;33.50;95085.19;5093297;28;20554;-63
2022/05/29 07:55:11;;;;;;;1.83;1.23;;;;;;;21.49;32.81;95091.88;5095719;28;20524;-64
2022/05/29 07:57:36;;;;;;;3.20;1.23;;;;;;;21.46;32.06;95091.28;5096679;28;20112;-64
2022/05/29 08:00:07;;;;;;;1.35;1.08;;;;;;;21.33;32.14;95081.56;5098422;28;20019;-63
2022/05/29 08:02:34;;;;;;;1.70;1.42;;;;;;;22.10;31.25;95081.97;5096547;28;20028;-64
2022/05/29 08:05:04;;;;;;;1.88;1.35;;;;;;;21.84;31.45;95075.19;5095232;28;20440;-64
2022/05/29 08:07:29;;;;;;;2.55;1.52;;;;;;;22.68;29.87;95081.53;5097151;28;20111;-64
2022/05/29 08:09:55;;;;;;;1.73;1.10;;;;;;;21.87;31.31;95074.72;5101894;28;20020;-64
2022/05/29 08:12:21;;;;;;;2.08;1.40;;;;;;;22.07;31.43;95074.41;5108205;28;20046;-64
2022/05/29 08:14:46;;;;;;;1.85;1.30;;;;;;;21.45;32.58;95067.44;5108720;27;20548;-64
2022/05/29 08:17:12;;;;;;;1.92;1.15;;;;;;;21.69;31.49;95067.56;5103478;27;20023;-64
2022/05/29 08:19:38;;;;;;;2.75;1.23;;;;;;;21.91;31.19;95065.16;5109767;27;20020;-64
2022/05/29 08:22:03;;;;;;;4.38;1.02;;;;;;;22.45;30.43;95067.03;5105623;27;20020;-64
2022/05/29 08:32:40;;;;;;;1.55;1.33;;;;;;;22.49;30.21;95054.81;5105217;27;20087;-63
2022/05/29 08:35:06;;;;;;;4.55;1.15;;;;;;;22.46;30.33;95055.25;5104604;27;20024;-63
2022/05/29 08:37:31;;;;;;;1.88;1.13;;;;;;;22.60;31.42;95051.31;5102631;28;20028;-66
2022/05/29 08:39:57;;;;;;;1.23;0.98;;;;;;;22.99;29.16;95047.31;5091575;28;20069;-66
2022/05/29 08:42:28;;;;;;;2.88;1.60;;;;;;;22.76;30.85;95054.34;5099198;27;20028;-65
2022/05/29 08:44:55;;;;;;;2.13;1.58;;;;;;;23.35;29.22;95045.38;5103000;27;20028;-65
2022/05/29 08:47:27;;;;;;;2.15;1.20;;;;;;;22.39;30.80;95049.16;5104844;27;20112;-64
2022/05/29 08:49:54;;;;;;;1.40;1.08;;;;;;;22.49;30.82;95044.09;5099526;27;20028;-65
2022/05/29 08:52:56;;;;;;;2.17;1.42;;;;;;;22.55;30.35;95040.47;5102338;27;20020;-64
2022/05/29 08:55:29;;;;;;;4.68;1.27;;;;;;;23.14;29.75;95039.56;5107568;27;20047;-64
2022/05/29 08:58:06;;;;;;;1.67;1.20;;;;;;;23.07;30.52;95043.44;5098241;27;20128;-64
2022/05/29 09:00:52;;;;;;;3.22;1.40;;;;;;;23.03;29.68;95035.03;5093725;27;20091;-64
2022/05/29 09:03:20;;;;;;;1.35;1.20;;;;;;;22.90;30.01;95036.13;5097860;27;20028;-64
2022/05/29 09:05:55;;;;;;;2.63;1.35;;;;;;;22.74;30.54;95029.59;5101765;27;20066;-64
2022/05/29 09:08:27;;;;;;;4.15;1.30;;;;;;;22.73;30.41;95031.47;5103800;27;20034;-64
2022/05/29 09:10:58;;;;;;;4.15;1.50;;;;;;;22.98;30.44;95029.56;5106441;27;20019;-65
2022/05/29 09:13:52;;;;;;;2.28;1.17;;;;;;;23.22;30.11;95027.66;5105473;27;20031;-67
2022/05/29 09:16:21;;;;;;;1.50;1.40;;;;;;;23.59;30.01;95034.56;5066273;27;20036;-65
2022/05/29 09:19:25;;;;;;;3.55;1.30;;;;;;;23.06;30.33;95031.88;5101447;27;20031;-67
2022/05/29 09:22:03;;;;;;;1.45;1.23;;;;;;;23.20;30.93;95031.63;5097900;27;20046;-66
2022/05/29 09:24:31;;;;;;;1.60;1.15;;;;;;;23.53;29.67;95030.13;5103420;27;20027;-67
2022/05/29 09:26:56;;;;;;;3.30;1.58;;;;;;;23.48;29.87;95017.44;5106452;27;20016;-66
2022/05/29 09:29:21;;;;;;;1.25;1.10;;;;;;;23.76;30.04;95023.84;5104393;27;20449;-65
2022/05/29 09:31:47;;;;;;;1.63;1.30;;;;;;;23.91;30.36;95020.59;5104567;27;20031;-66
2022/05/29 09:34:12;;;;;;;2.20;1.30;;;;;;;23.83;29.54;95024.50;5107691;27;20027;-66
2022/05/29 09:36:58;;;;;;;1.63;1.20;;;;;;;24.25;28.79;95020.66;5105886;27;20028;-66
2022/05/29 09:39:33;;;;;;;3.85;1.20;;;;;;;24.73;26.68;95022.97;5105651;27;20059;-66
2022/05/29 09:42:17;;;;;;;1.38;1.25;;;;;;;24.66;27.43;95019.63;5104067;27;20487;-67
2022/05/29 09:45:06;;;;;;;3.17;1.55;;;;;;;24.57;26.92;95017.34;5109454;27;20023;-66
2022/05/29 09:50:17;;;;;;;3.70;1.50;;;;;;;24.70;27.07;95015.38;5104381;27;20083;-66
2022/05/29 09:52:44;;;;;;;2.20;1.60;;;;;;;24.56;28.67;95006.84;5114032;27;20561;-66
2022/05/29 09:55:24;;;;;;;7.35;1.52;;;;;;;24.31;28.43;95013.47;5109238;27;20073;-66
2022/05/29 09:57:57;;;;;;;3.00;1.20;;;;;;;25.56;25.51;95011.34;5105099;27;20445;-66
2022/05/29 10:00:30;;;;;;;1.48;1.05;;;;;;;24.49;27.13;95016.94;5104551;27;20024;-65
2022/05/29 10:02:56;;;;;;;3.08;1.30;;;;;;;24.33;28.62;95016.75;5101785;27;20066;-66
2022/05/29 10:05:29;;;;;;;3.42;1.30;;;;;;;24.42;28.16;95014.44;5103918;27;20134;-67
2022/05/29 10:07:57;;;;;;;1.60;1.30;;;;;;;24.81;27.48;95017.16;5104561;27;20023;-67
2022/05/29 10:10:23;;;;;;;1.35;1.25;;;;;;;25.15;27.04;95017.06;5093781;28;20110;-67
2022/05/29 10:12:49;;;;;;;4.23;1.40;;;;;;;24.60;28.19;95019.53;5111873;27;20091;-66
2022/05/29 10:15:26;;;;;;;3.55;1.50;;;;;;;24.65;27.44;95009.91;5111128;27;20301;-67
2022/05/29 10:18:01;;;;;;;1.77;1.30;;;;;;;25.00;27.52;95008.78;5107854;27;20030;-66
2022/05/29 10:20:39;;;;;;;3.10;1.38;;;;;;;24.54;27.61;95004.41;5097563;27;20048;-66
2022/05/29 10:23:32;;;;;;;2.40;1.15;;;;;;;24.95;27.52;95004.16;5100529;27;20024;-66
2022/05/29 10:26:01;;;;;;;1.17;1.05;;;;;;;24.76;26.69;95003.66;5101635;27;20028;-66
2022/05/29 10:28:35;;;;;;;2.33;1.30;;;;;;;24.71;26.83;95006.25;5105535;27;20037;-67
2022/05/29 10:31:04;;;;;;;2.73;1.50;;;;;;;24.97;26.27;94998.53;5083134;28;20371;-67
2022/05/29 10:33:33;;;;;;;1.90;1.13;;;;;;;25.40;25.39;94991.50;5112071;27;20012;-67
2022/05/29 10:36:19;;;;;;;1.40;1.20;;;;;;;25.66;26.10;94997.16;5100356;27;20028;-66
2022/05/29 10:38:46;;;;;;;1.80;1.17;;;;;;;25.95;25.12;94996.09;5104741;27;20050;-67
2022/05/29 10:41:12;;;;;;;3.88;1.13;;;;;;;26.22;25.02;94990.69;5105327;27;20034;-66
2022/05/29 10:43:55;;;;;;;2.63;1.25;;;;;;;25.82;24.55;94991.94;5100763;27;20020;-67
2022/05/29 10:46:24;;;;;;;1.52;1.42;;;;;;;25.65;25.56;94995.53;5100487;27;20058;-67
2022/05/29 10:49:09;;;;;;;4.18;1.60;;;;;;;25.60;25.09;94984.72;5100040;27;20138;-67
2022/05/29 10:52:09;;;;;;;2.42;1.40;;;;;;;25.59;25.10;94977.72;5106108;27;20027;-66
2022/05/29 10:54:50;;;;;;;2.45;1.10;;;;;;;26.25;25.17;94976.66;5087019;27;20075;-67
2022/05/29 10:57:32;;;;;;;1.30;1.20;;;;;;;25.72;24.84;94977.28;5096316;27;20038;-66
2022/05/29 10:59:57;;;;;;;0.80;0.80;;;;;;;26.20;24.07;94973.94;5103887;27;20024;-67
2022/05/29 11:06:04;;;;;;;3.33;1.58;;;;;;;25.92;24.64;94959.66;5099501;27;20360;-68
2022/05/29 11:08:58;;;;;;;3.28;1.40;;;;;;;26.00;25.77;94961.91;5108110;27;20024;-67
2022/05/29 11:11:32;;;;;;;1.92;1.40;;;;;;;25.97;23.84;94954.28;5108132;27;20023;-68
2022/05/29 11:14:19;;;;;;;1.95;1.35;;;;;;;25.60;24.51;94957.78;5105138;27;20031;-67
2022/05/29 11:17:07;;;;;;;5.65;1.42;;;;;;;25.61;24.73;94954.00;5105233;27;20027;-67
2022/05/29 11:20:08;;;;;;;3.00;1.48;;;;;;;25.82;24.13;94959.59;5100056;27;20040;-67
2022/05/29 11:22:47;;;;;;;1.55;1.38;;;;;;;25.94;23.77;94945.94;5093677;28;20135;-67
2022/05/29 11:25:40;;;;;;;2.05;1.02;;;;;;;25.39;23.27;94944.06;5104948;28;20030;-66
2022/05/29 11:28:17;;;;;;;1.60;0.95;;;;;;;25.80;23.43;94940.97;5100665;27;20028;-66
2022/05/29 11:30:57;;;;;;;2.38;2.17;;;;;;;25.42;25.53;94945.41;5106110;28;20032;-68
2022/05/29 11:33:45;;;;;;;6.25;4.82;;;;;;;26.47;23.11;94937.94;5095598;28;20506;-67
2022/05/29 11:36:16;;;;;;;1.20;1.10;;;;;;;25.74;24.05;94945.47;5100377;28;20089;-66
2022/05/29 11:39:12;;;;;;;3.47;1.42;;;;;;;25.53;24.62;94936.41;5100167;28;20098;-67
2022/05/29 11:41:40;;;;;;;3.13;1.20;;;;;;;25.45;23.40;94936.84;5101642;28;20039;-67
2022/05/29 11:44:19;;;;;;;2.33;1.20;;;;;;;26.61;23.46;94935.59;5106584;28;20213;-68
2022/05/29 11:52:47;;;;;;;1.10;1.00;;;;;;;26.46;21.42;94942.53;5097878;28;20567;-66
2022/05/29 11:55:20;;;;;;;3.28;1.17;;;;;;;25.89;23.31;94927.81;5107720;28;20072;-67
2022/05/29 11:58:08;;;;;;;2.47;1.30;;;;;;;26.14;23.24;94929.06;5096214;28;20074;-64
2022/05/29 12:00:49;;;;;;;1.20;1.13;;;;;;;26.21;22.23;94929.72;5102267;28;20045;-64
2022/05/29 12:03:36;;;;;;;5.20;4.15;;;;;;;26.34;21.55;94927.59;5099011;28;20031;-65
2022/05/29 12:06:29;;;;;;;2.50;1.25;;;;;;;25.85;23.07;94922.13;5105364;28;20020;-64
2022/05/29 12:09:16;;;;;;;2.47;1.38;;;;;;;25.28;23.00;94916.22;5104729;28;20015;-63
2022/05/29 12:12:00;;;;;;;1.30;1.15;;;;;;;25.77;22.58;94914.53;5103360;28;20039;-63
2022/05/29 12:14:37;;;;;;;1.80;1.17;;;;;;;24.86;22.22;94911.47;5100678;28;20043;-64
2022/05/29 12:17:18;;;;;;;1.13;0.85;;;;;;;24.41;23.97;94905.22;5102609;28;20031;-65
2022/05/29 12:19:49;;;;;;;1.45;1.20;;;;;;;25.45;23.32;94912.63;5095285;28;20031;-64
2022/05/29 12:22:25;;;;;;;1.42;1.05;;;;;;;25.64;23.25;94901.47;5091845;28;20632;-63
2022/05/29 12:24:53;;;;;;;6.10;1.48;;;;;;;25.56;21.98;94910.84;5091013;28;20500;-63
2022/05/29 12:27:22;;;;;;;1.95;1.23;;;;;;;25.51;22.81;94906.22;5094036;28;20043;-63
2022/05/29 12:29:54;;;;;;;1.67;1.20;;;;;;;25.89;21.69;94914.34;5102695;27;20034;-65
2022/05/29 12:32:30;;;;;;;2.42;1.05;;;;;;;25.63;22.83;94908.75;5096974;27;20024;-63
2022/05/29 12:35:22;;;;;;;1.73;1.30;;;;;;;24.86;23.72;94896.09;5080567;27;20016;-65
2022/05/29 12:38:08;;;;;;;1.00;0.98;;;;;;;24.87;23.11;94897.75;5089126;27;20036;-63